sensor_id;sensor_type;location;lat;lon;timestamp;temperature;humidity
18341;DHT22;9296;48.084;16.352;2023-02-19T00:00:59;14.30;99.90
18341;DHT22;9296;48.084;16.352;2023-02-19T00:03:28;14.40;99.90
18341;DHT22;9296;48.084;16.352;2023-02-19T00:05:55;14.40;99.90
18341;DHT22;9296;48.084;16.352;2023-02-19T00:08:22;14.40;99.90
18341;DHT22;9296;48.084;16.352;2023-02-19T00:10:49;14.30;99.90
18341;DHT22;9296;48.084;16.352;2023-02-19T00:13:16;14.40;99.90
18341;DHT22;9296;48.084;16.352;2023-02-19T00:15:43;14.40;99.90
18341;DHT22;9296;48.084;16.352;2023-02-19T00:18:11;14.30;99.90
18341;DHT22;9296;48.084;16.352;2023-02-19T00:20:38;14.40;99.90
18341;DHT22;9296;48.084;16.352;2023-02-19T00:23:05;14.40;99.90
18341;DHT22;9296;48.084;16.352;2023-02-19T00:25:35;14.40;99.90
18341;DHT22;9296;48.084;16.352;2023-02-19T00:28:02;14.40;99.90
18341;DHT22;9296;48.084;16.352;2023-02-19T00:30:29;14.30;99.90
18341;DHT22;9296;48.084;16.352;2023-02-19T00:32:56;14.20;99.90
18341;DHT22;9296;48.084;16.352;2023-02-19T00:35:24;14.20;99.90
18341;DHT22;9296;48.084;16.352;2023-02-19T00:37:51;14.20;99.90
18341;DHT22;9296;48.084;16.352;2023-02-19T00:40:18;14.20;99.90
18341;DHT22;9296;48.084;16.352;2023-02-19T00:42:45;14.00;99.90
18341;DHT22;9296;48.084;16.352;2023-02-19T00:45:12;14.00;99.90
18341;DHT22;9296;48.084;16.352;2023-02-19T00:47:39;14.10;99.90
18341;DHT22;9296;48.084;16.352;2023-02-19T00:50:06;14.00;99.90
18341;DHT22;9296;48.084;16.352;2023-02-19T00:52:34;14.10;99.90
18341;DHT22;9296;48.084;16.352;2023-02-19T00:55:01;14.10;99.90
18341;DHT22;9296;48.084;16.352;2023-02-19T00:57:28;14.10;99.90
18341;DHT22;9296;48.084;16.352;2023-02-19T00:59:55;14.00;99.90
18341;DHT22;9296;48.084;16.352;2023-02-19T01:02:22;13.90;99.90
18341;DHT22;9296;48.084;16.352;2023-02-19T01:04:49;14.00;99.90
18341;DHT22;9296;48.084;16.352;2023-02-19T01:07:15;14.10;99.90
18341;DHT22;9296;48.084;16.352;2023-02-19T01:09:44;13.90;99.90
18341;DHT22;9296;48.084;16.352;2023-02-19T01:12:10;14.00;99.90
18341;DHT22;9296;48.084;16.352;2023-02-19T01:14:37;13.90;99.90
18341;DHT22;9296;48.084;16.352;2023-02-19T01:17:04;14.10;99.90
18341;DHT22;9296;48.084;16.352;2023-02-19T01:19:31;13.90;99.90
18341;DHT22;9296;48.084;16.352;2023-02-19T01:21:58;13.90;99.90
18341;DHT22;9296;48.084;16.352;2023-02-19T01:24:25;13.80;99.90
18341;DHT22;9296;48.084;16.352;2023-02-19T01:26:53;13.80;99.90
18341;DHT22;9296;48.084;16.352;2023-02-19T01:29:20;13.80;99.90
18341;DHT22;9296;48.084;16.352;2023-02-19T01:31:47;13.80;99.90
18341;DHT22;9296;48.084;16.352;2023-02-19T01:34:14;13.70;99.90
18341;DHT22;9296;48.084;16.352;2023-02-19T01:36:41;13.80;99.90
18341;DHT22;9296;48.084;16.352;2023-02-19T01:39:08;13.70;99.90
18341;DHT22;9296;48.084;16.352;2023-02-19T01:41:38;13.80;99.90
18341;DHT22;9296;48.084;16.352;2023-02-19T01:47:16;13.70;99.90
18341;DHT22;9296;48.084;16.352;2023-02-19T01:49:46;13.70;99.90
18341;DHT22;9296;48.084;16.352;2023-02-19T01:52:17;13.80;99.90
18341;DHT22;9296;48.084;16.352;2023-02-19T01:54:47;13.60;99.90
18341;DHT22;9296;48.084;16.352;2023-02-19T01:57:17;13.50;99.90
18341;DHT22;9296;48.084;16.352;2023-02-19T01:59:46;13.60;99.90
18341;DHT22;9296;48.084;16.352;2023-02-19T02:02:14;13.50;99.90
18341;DHT22;9296;48.084;16.352;2023-02-19T02:04:41;13.50;99.90
18341;DHT22;9296;48.084;16.352;2023-02-19T02:07:08;13.40;99.90
18341;DHT22;9296;48.084;16.352;2023-02-19T02:09:49;13.60;99.90
18341;DHT22;9296;48.084;16.352;2023-02-19T02:12:34;13.40;99.90
18341;DHT22;9296;48.084;16.352;2023-02-19T02:15:02;13.40;99.90
18341;DHT22;9296;48.084;16.352;2023-02-19T02:17:35;13.40;99.90
18341;DHT22;9296;48.084;16.352;2023-02-19T02:20:26;13.40;99.90
18341;DHT22;9296;48.084;16.352;2023-02-19T02:22:58;13.40;99.90
18341;DHT22;9296;48.084;16.352;2023-02-19T02:26:06;13.40;99.90
18341;DHT22;9296;48.084;16.352;2023-02-19T02:28:55;13.40;99.90
18341;DHT22;9296;48.084;16.352;2023-02-19T02:31:30;13.40;99.90
18341;DHT22;9296;48.084;16.352;2023-02-19T02:34:05;13.30;99.90
18341;DHT22;9296;48.084;16.352;2023-02-19T02:36:36;13.30;99.90
18341;DHT22;9296;48.084;16.352;2023-02-19T02:39:07;13.50;99.90
18341;DHT22;9296;48.084;16.352;2023-02-19T02:41:55;13.30;99.90
18341;DHT22;9296;48.084;16.352;2023-02-19T02:44:37;13.30;99.90
18341;DHT22;9296;48.084;16.352;2023-02-19T02:47:06;13.30;99.90
18341;DHT22;9296;48.084;16.352;2023-02-19T02:49:57;13.30;99.90
18341;DHT22;9296;48.084;16.352;2023-02-19T02:52:31;13.30;99.90
18341;DHT22;9296;48.084;16.352;2023-02-19T02:55:39;13.30;99.90
18341;DHT22;9296;48.084;16.352;2023-02-19T02:58:08;13.10;99.90
18341;DHT22;9296;48.084;16.352;2023-02-19T03:00:37;13.20;99.90
18341;DHT22;9296;48.084;16.352;2023-02-19T03:03:25;13.20;99.90
18341;DHT22;9296;48.084;16.352;2023-02-19T03:05:56;13.10;99.90
18341;DHT22;9296;48.084;16.352;2023-02-19T03:08:27;13.20;99.90
18341;DHT22;9296;48.084;16.352;2023-02-19T03:10:58;13.00;99.90
18341;DHT22;9296;48.084;16.352;2023-02-19T03:13:46;13.10;99.90
18341;DHT22;9296;48.084;16.352;2023-02-19T03:16:33;13.00;99.90
18341;DHT22;9296;48.084;16.352;2023-02-19T03:19:24;13.00;99.90
18341;DHT22;9296;48.084;16.352;2023-02-19T03:21:55;13.00;99.90
18341;DHT22;9296;48.084;16.352;2023-02-19T03:24:28;13.00;99.90
18341;DHT22;9296;48.084;16.352;2023-02-19T03:27:14;13.00;99.90
18341;DHT22;9296;48.084;16.352;2023-02-19T03:29:43;13.00;99.90
18341;DHT22;9296;48.084;16.352;2023-02-19T03:32:14;13.00;99.90
18341;DHT22;9296;48.084;16.352;2023-02-19T03:34:51;13.10;99.90
18341;DHT22;9296;48.084;16.352;2023-02-19T03:37:25;13.00;99.90
18341;DHT22;9296;48.084;16.352;2023-02-19T03:39:54;13.00;99.90
18341;DHT22;9296;48.084;16.352;2023-02-19T03:42:30;12.90;99.90
18341;DHT22;9296;48.084;16.352;2023-02-19T03:45:23;13.00;99.90
18341;DHT22;9296;48.084;16.352;2023-02-19T03:47:55;12.90;99.90
18341;DHT22;9296;48.084;16.352;2023-02-19T03:50:29;13.00;99.90
18341;DHT22;9296;48.084;16.352;2023-02-19T03:53:07;13.20;99.90
18341;DHT22;9296;48.084;16.352;2023-02-19T03:55:42;13.00;99.90
18341;DHT22;9296;48.084;16.352;2023-02-19T03:58:15;13.10;99.90
18341;DHT22;9296;48.084;16.352;2023-02-19T04:00:50;12.90;99.90
18341;DHT22;9296;48.084;16.352;2023-02-19T04:03:22;13.00;99.90
18341;DHT22;9296;48.084;16.352;2023-02-19T04:05:57;13.00;99.90
18341;DHT22;9296;48.084;16.352;2023-02-19T04:08:26;12.90;99.90
18341;DHT22;9296;48.084;16.352;2023-02-19T04:10:54;12.90;99.90
18341;DHT22;9296;48.084;16.352;2023-02-19T04:13:24;13.00;99.90
18341;DHT22;9296;48.084;16.352;2023-02-19T04:15:55;12.90;99.90
18341;DHT22;9296;48.084;16.352;2023-02-19T04:18:25;12.90;99.90
18341;DHT22;9296;48.084;16.352;2023-02-19T04:20:55;12.80;99.90
18341;DHT22;9296;48.084;16.352;2023-02-19T04:23:25;12.90;99.90
18341;DHT22;9296;48.084;16.352;2023-02-19T04:29:15;12.80;99.90
18341;DHT22;9296;48.084;16.352;2023-02-19T04:31:42;12.80;99.90
18341;DHT22;9296;48.084;16.352;2023-02-19T04:34:09;12.80;99.90
18341;DHT22;9296;48.084;16.352;2023-02-19T04:36:37;12.70;99.90
18341;DHT22;9296;48.084;16.352;2023-02-19T04:39:04;12.70;99.90
18341;DHT22;9296;48.084;16.352;2023-02-19T04:41:32;12.70;99.90
18341;DHT22;9296;48.084;16.352;2023-02-19T04:43:59;12.70;99.90
18341;DHT22;9296;48.084;16.352;2023-02-19T04:46:26;12.90;99.90
18341;DHT22;9296;48.084;16.352;2023-02-19T04:48:53;12.80;99.90
18341;DHT22;9296;48.084;16.352;2023-02-19T04:51:20;12.80;99.90
18341;DHT22;9296;48.084;16.352;2023-02-19T04:53:48;12.90;99.90
18341;DHT22;9296;48.084;16.352;2023-02-19T04:56:16;12.90;99.90
18341;DHT22;9296;48.084;16.352;2023-02-19T04:58:43;12.90;99.90
18341;DHT22;9296;48.084;16.352;2023-02-19T05:01:11;12.90;99.90
18341;DHT22;9296;48.084;16.352;2023-02-19T05:03:39;12.80;99.90
18341;DHT22;9296;48.084;16.352;2023-02-19T05:06:07;12.70;99.90
18341;DHT22;9296;48.084;16.352;2023-02-19T05:08:36;12.70;99.90
18341;DHT22;9296;48.084;16.352;2023-02-19T05:14:09;12.70;99.90
18341;DHT22;9296;48.084;16.352;2023-02-19T05:16:36;12.70;99.90
18341;DHT22;9296;48.084;16.352;2023-02-19T05:19:03;12.70;99.90
18341;DHT22;9296;48.084;16.352;2023-02-19T05:21:30;12.70;99.90
18341;DHT22;9296;48.084;16.352;2023-02-19T05:23:57;12.80;99.90
18341;DHT22;9296;48.084;16.352;2023-02-19T05:26:24;12.80;99.90
18341;DHT22;9296;48.084;16.352;2023-02-19T05:28:52;12.70;99.90
18341;DHT22;9296;48.084;16.352;2023-02-19T05:31:20;12.70;99.90
18341;DHT22;9296;48.084;16.352;2023-02-19T05:33:47;12.70;99.90
18341;DHT22;9296;48.084;16.352;2023-02-19T05:36:16;12.70;99.90
18341;DHT22;9296;48.084;16.352;2023-02-19T05:38:44;12.70;99.90
18341;DHT22;9296;48.084;16.352;2023-02-19T05:41:13;12.90;99.90
18341;DHT22;9296;48.084;16.352;2023-02-19T05:43:41;12.80;99.90
18341;DHT22;9296;48.084;16.352;2023-02-19T05:46:09;12.60;99.90
18341;DHT22;9296;48.084;16.352;2023-02-19T05:48:38;12.60;99.90
18341;DHT22;9296;48.084;16.352;2023-02-19T05:51:06;12.60;99.90
18341;DHT22;9296;48.084;16.352;2023-02-19T05:53:34;12.60;99.90
18341;DHT22;9296;48.084;16.352;2023-02-19T05:56:01;12.60;99.90
18341;DHT22;9296;48.084;16.352;2023-02-19T05:58:28;12.50;99.90
18341;DHT22;9296;48.084;16.352;2023-02-19T06:00:56;12.60;99.90
18341;DHT22;9296;48.084;16.352;2023-02-19T06:03:22;12.60;99.90
18341;DHT22;9296;48.084;16.352;2023-02-19T06:05:51;12.70;99.90
18341;DHT22;9296;48.084;16.352;2023-02-19T06:08:18;12.60;99.90
18341;DHT22;9296;48.084;16.352;2023-02-19T06:10:44;12.60;99.90
18341;DHT22;9296;48.084;16.352;2023-02-19T06:13:11;12.60;99.90
18341;DHT22;9296;48.084;16.352;2023-02-19T06:15:39;12.60;99.90
18341;DHT22;9296;48.084;16.352;2023-02-19T06:18:05;12.50;99.90
18341;DHT22;9296;48.084;16.352;2023-02-19T06:20:32;12.60;99.90
18341;DHT22;9296;48.084;16.352;2023-02-19T06:23:00;12.60;99.90
18341;DHT22;9296;48.084;16.352;2023-02-19T06:25:27;12.60;99.90
18341;DHT22;9296;48.084;16.352;2023-02-19T06:27:54;12.60;99.90
18341;DHT22;9296;48.084;16.352;2023-02-19T06:30:22;12.70;99.90
18341;DHT22;9296;48.084;16.352;2023-02-19T06:32:50;12.70;99.90
18341;DHT22;9296;48.084;16.352;2023-02-19T06:35:18;12.70;99.90
18341;DHT22;9296;48.084;16.352;2023-02-19T06:37:46;12.80;99.90
18341;DHT22;9296;48.084;16.352;2023-02-19T06:40:15;12.70;99.90
18341;DHT22;9296;48.084;16.352;2023-02-19T06:42:42;12.80;99.90
18341;DHT22;9296;48.084;16.352;2023-02-19T06:45:09;12.70;99.90
18341;DHT22;9296;48.084;16.352;2023-02-19T06:47:36;12.80;99.90
18341;DHT22;9296;48.084;16.352;2023-02-19T06:50:03;13.00;99.90
18341;DHT22;9296;48.084;16.352;2023-02-19T06:52:30;12.90;99.90
18341;DHT22;9296;48.084;16.352;2023-02-19T06:54:56;13.00;99.90
18341;DHT22;9296;48.084;16.352;2023-02-19T06:57:25;12.90;99.90
18341;DHT22;9296;48.084;16.352;2023-02-19T06:59:52;13.20;99.90
18341;DHT22;9296;48.084;16.352;2023-02-19T07:02:18;13.00;99.90
18341;DHT22;9296;48.084;16.352;2023-02-19T07:04:45;13.10;99.90
18341;DHT22;9296;48.084;16.352;2023-02-19T07:07:12;13.20;99.90
18341;DHT22;9296;48.084;16.352;2023-02-19T07:09:39;13.10;99.90
18341;DHT22;9296;48.084;16.352;2023-02-19T07:12:06;13.20;99.90
18341;DHT22;9296;48.084;16.352;2023-02-19T07:14:35;13.10;99.90
18341;DHT22;9296;48.084;16.352;2023-02-19T07:17:03;13.10;99.90
18341;DHT22;9296;48.084;16.352;2023-02-19T07:19:29;13.20;99.90
18341;DHT22;9296;48.084;16.352;2023-02-19T07:21:56;13.10;99.90
18341;DHT22;9296;48.084;16.352;2023-02-19T07:24:23;13.10;99.90
18341;DHT22;9296;48.084;16.352;2023-02-19T07:27:08;13.00;99.90
18341;DHT22;9296;48.084;16.352;2023-02-19T07:29:36;13.20;99.90
18341;DHT22;9296;48.084;16.352;2023-02-19T07:32:03;13.10;99.90
18341;DHT22;9296;48.084;16.352;2023-02-19T07:34:30;13.20;99.90
18341;DHT22;9296;48.084;16.352;2023-02-19T07:36:57;13.10;99.90
18341;DHT22;9296;48.084;16.352;2023-02-19T07:39:24;13.20;99.90
18341;DHT22;9296;48.084;16.352;2023-02-19T07:41:51;13.20;99.90
18341;DHT22;9296;48.084;16.352;2023-02-19T07:44:18;13.30;99.90
18341;DHT22;9296;48.084;16.352;2023-02-19T07:46:46;13.00;99.90
18341;DHT22;9296;48.084;16.352;2023-02-19T07:49:13;13.10;99.90
18341;DHT22;9296;48.084;16.352;2023-02-19T07:51:40;13.10;99.90
18341;DHT22;9296;48.084;16.352;2023-02-19T07:54:08;13.10;99.90
18341;DHT22;9296;48.084;16.352;2023-02-19T07:56:35;13.10;99.90
18341;DHT22;9296;48.084;16.352;2023-02-19T07:59:02;13.10;99.90
18341;DHT22;9296;48.084;16.352;2023-02-19T08:01:29;13.00;99.90
18341;DHT22;9296;48.084;16.352;2023-02-19T08:04:15;13.30;99.90
18341;DHT22;9296;48.084;16.352;2023-02-19T08:06:42;13.20;99.90
18341;DHT22;9296;48.084;16.352;2023-02-19T08:09:09;13.20;99.90
18341;DHT22;9296;48.084;16.352;2023-02-19T08:11:36;13.10;99.90
18341;DHT22;9296;48.084;16.352;2023-02-19T08:14:23;13.20;99.90
18341;DHT22;9296;48.084;16.352;2023-02-19T08:16:51;13.20;99.90
18341;DHT22;9296;48.084;16.352;2023-02-19T08:19:19;13.40;99.90
18341;DHT22;9296;48.084;16.352;2023-02-19T08:21:46;13.40;99.90
18341;DHT22;9296;48.084;16.352;2023-02-19T08:24:15;13.60;99.90
18341;DHT22;9296;48.084;16.352;2023-02-19T08:30:04;13.50;99.90
18341;DHT22;9296;48.084;16.352;2023-02-19T08:32:31;13.50;99.90
18341;DHT22;9296;48.084;16.352;2023-02-19T08:34:59;13.50;99.90
18341;DHT22;9296;48.084;16.352;2023-02-19T08:37:26;13.60;99.90
18341;DHT22;9296;48.084;16.352;2023-02-19T08:39:53;13.60;99.90
18341;DHT22;9296;48.084;16.352;2023-02-19T08:45:44;13.80;99.90
18341;DHT22;9296;48.084;16.352;2023-02-19T08:48:13;13.90;99.90
18341;DHT22;9296;48.084;16.352;2023-02-19T08:50:41;14.00;99.90
18341;DHT22;9296;48.084;16.352;2023-02-19T08:53:08;14.00;99.90
18341;DHT22;9296;48.084;16.352;2023-02-19T08:55:36;14.10;99.90
18341;DHT22;9296;48.084;16.352;2023-02-19T08:58:04;14.40;99.90
18341;DHT22;9296;48.084;16.352;2023-02-19T09:00:31;15.10;99.90
18341;DHT22;9296;48.084;16.352;2023-02-19T09:02:58;16.20;99.90
18341;DHT22;9296;48.084;16.352;2023-02-19T09:05:25;16.60;99.90
18341;DHT22;9296;48.084;16.352;2023-02-19T09:07:54;16.10;99.90
18341;DHT22;9296;48.084;16.352;2023-02-19T09:10:21;15.60;99.90
18341;DHT22;9296;48.084;16.352;2023-02-19T09:12:48;15.00;99.90
18341;DHT22;9296;48.084;16.352;2023-02-19T09:15:15;14.60;99.90
18341;DHT22;9296;48.084;16.352;2023-02-19T09:17:42;14.30;99.90
18341;DHT22;9296;48.084;16.352;2023-02-19T09:20:10;13.80;99.90
18341;DHT22;9296;48.084;16.352;2023-02-19T09:22:37;13.70;99.90
18341;DHT22;9296;48.084;16.352;2023-02-19T09:25:05;13.60;99.90
18341;DHT22;9296;48.084;16.352;2023-02-19T09:30:38;13.50;99.90
18341;DHT22;9296;48.084;16.352;2023-02-19T09:33:05;13.40;99.90
18341;DHT22;9296;48.084;16.352;2023-02-19T09:35:31;13.30;99.90
18341;DHT22;9296;48.084;16.352;2023-02-19T09:37:58;13.10;99.90
18341;DHT22;9296;48.084;16.352;2023-02-19T09:40:29;13.10;99.90
18341;DHT22;9296;48.084;16.352;2023-02-19T09:42:56;13.40;99.90
18341;DHT22;9296;48.084;16.352;2023-02-19T09:45:24;13.70;99.90
18341;DHT22;9296;48.084;16.352;2023-02-19T09:47:53;13.80;99.90
18341;DHT22;9296;48.084;16.352;2023-02-19T09:50:26;13.70;99.90
18341;DHT22;9296;48.084;16.352;2023-02-19T09:52:59;13.60;99.90
18341;DHT22;9296;48.084;16.352;2023-02-19T09:58:37;14.10;99.90
18341;DHT22;9296;48.084;16.352;2023-02-19T10:01:09;14.70;99.90
18341;DHT22;9296;48.084;16.352;2023-02-19T10:03:38;15.60;99.90
18341;DHT22;9296;48.084;16.352;2023-02-19T10:06:13;15.30;99.90
18341;DHT22;9296;48.084;16.352;2023-02-19T10:08:44;15.50;99.90
18341;DHT22;9296;48.084;16.352;2023-02-19T10:11:34;15.80;99.90
18341;DHT22;9296;48.084;16.352;2023-02-19T10:14:04;16.20;99.90
18341;DHT22;9296;48.084;16.352;2023-02-19T10:16:35;16.70;99.90
18341;DHT22;9296;48.084;16.352;2023-02-19T10:19:07;16.90;99.90
18341;DHT22;9296;48.084;16.352;2023-02-19T10:21:36;17.30;99.90
18341;DHT22;9296;48.084;16.352;2023-02-19T10:24:05;17.60;99.90
18341;DHT22;9296;48.084;16.352;2023-02-19T10:26:53;17.80;99.90
18341;DHT22;9296;48.084;16.352;2023-02-19T10:29:21;17.90;99.90
18341;DHT22;9296;48.084;16.352;2023-02-19T10:31:50;17.90;99.90
18341;DHT22;9296;48.084;16.352;2023-02-19T10:34:37;17.80;99.90
18341;DHT22;9296;48.084;16.352;2023-02-19T10:37:09;17.60;99.90
18341;DHT22;9296;48.084;16.352;2023-02-19T10:39:39;17.50;99.90
18341;DHT22;9296;48.084;16.352;2023-02-19T10:42:18;17.60;99.90
18341;DHT22;9296;48.084;16.352;2023-02-19T10:44:48;17.50;99.90
18341;DHT22;9296;48.084;16.352;2023-02-19T10:47:18;17.30;99.90
18341;DHT22;9296;48.084;16.352;2023-02-19T10:49:47;17.00;99.90
18341;DHT22;9296;48.084;16.352;2023-02-19T10:52:20;16.90;99.90
18341;DHT22;9296;48.084;16.352;2023-02-19T10:54:51;16.80;99.90
18341;DHT22;9296;48.084;16.352;2023-02-19T10:57:28;16.80;99.90
18341;DHT22;9296;48.084;16.352;2023-02-19T10:59:59;16.80;99.90
18341;DHT22;9296;48.084;16.352;2023-02-19T11:02:28;16.80;99.90
18341;DHT22;9296;48.084;16.352;2023-02-19T11:05:04;16.90;99.90
18341;DHT22;9296;48.084;16.352;2023-02-19T11:07:32;16.90;99.90
18341;DHT22;9296;48.084;16.352;2023-02-19T11:09:59;16.70;99.90
18341;DHT22;9296;48.084;16.352;2023-02-19T11:13:03;16.70;99.90
18341;DHT22;9296;48.084;16.352;2023-02-19T11:15:33;16.70;99.90
18341;DHT22;9296;48.084;16.352;2023-02-19T11:18:03;16.60;99.90
18341;DHT22;9296;48.084;16.352;2023-02-19T11:20:33;16.40;99.90
18341;DHT22;9296;48.084;16.352;2023-02-19T11:23:09;16.20;99.90
18341;DHT22;9296;48.084;16.352;2023-02-19T11:25:44;16.20;99.90
18341;DHT22;9296;48.084;16.352;2023-02-19T11:28:29;16.10;99.90
18341;DHT22;9296;48.084;16.352;2023-02-19T11:31:13;16.20;99.90
18341;DHT22;9296;48.084;16.352;2023-02-19T11:33:44;16.30;99.90
18341;DHT22;9296;48.084;16.352;2023-02-19T11:36:28;16.40;99.90
18341;DHT22;9296;48.084;16.352;2023-02-19T11:38:57;16.50;99.90
18341;DHT22;9296;48.084;16.352;2023-02-19T11:41:44;16.60;99.90
18341;DHT22;9296;48.084;16.352;2023-02-19T11:44:25;16.60;99.90
18341;DHT22;9296;48.084;16.352;2023-02-19T11:47:19;16.50;99.90
18341;DHT22;9296;48.084;16.352;2023-02-19T11:49:55;16.50;99.90
18341;DHT22;9296;48.084;16.352;2023-02-19T11:52:28;16.50;99.90
18341;DHT22;9296;48.084;16.352;2023-02-19T11:55:07;16.50;99.90
18341;DHT22;9296;48.084;16.352;2023-02-19T11:57:40;16.40;99.90
18341;DHT22;9296;48.084;16.352;2023-02-19T12:00:25;16.40;99.90
18341;DHT22;9296;48.084;16.352;2023-02-19T12:03:15;16.30;99.90
18341;DHT22;9296;48.084;16.352;2023-02-19T12:05:57;16.40;99.90
18341;DHT22;9296;48.084;16.352;2023-02-19T12:08:46;16.50;99.90
18341;DHT22;9296;48.084;16.352;2023-02-19T12:11:35;16.50;99.90
18341;DHT22;9296;48.084;16.352;2023-02-19T12:14:26;16.20;99.90
18341;DHT22;9296;48.084;16.352;2023-02-19T12:17:04;15.70;99.90
18341;DHT22;9296;48.084;16.352;2023-02-19T12:19:41;15.40;99.90
18341;DHT22;9296;48.084;16.352;2023-02-19T12:22:25;15.20;99.90
18341;DHT22;9296;48.084;16.352;2023-02-19T12:25:22;15.00;99.90
18341;DHT22;9296;48.084;16.352;2023-02-19T12:28:20;14.80;99.90
18341;DHT22;9296;48.084;16.352;2023-02-19T12:31:20;14.70;99.90
18341;DHT22;9296;48.084;16.352;2023-02-19T12:34:18;14.60;99.90
18341;DHT22;9296;48.084;16.352;2023-02-19T12:37:00;14.80;99.90
18341;DHT22;9296;48.084;16.352;2023-02-19T12:39:34;15.10;99.90
18341;DHT22;9296;48.084;16.352;2023-02-19T12:42:12;15.40;99.90
18341;DHT22;9296;48.084;16.352;2023-02-19T12:44:47;15.50;99.90
18341;DHT22;9296;48.084;16.352;2023-02-19T12:47:19;15.80;99.90
18341;DHT22;9296;48.084;16.352;2023-02-19T12:49:55;15.90;99.90
18341;DHT22;9296;48.084;16.352;2023-02-19T12:52:30;16.00;99.90
18341;DHT22;9296;48.084;16.352;2023-02-19T12:55:04;16.00;99.90
18341;DHT22;9296;48.084;16.352;2023-02-19T12:57:36;15.60;99.90
18341;DHT22;9296;48.084;16.352;2023-02-19T13:00:20;15.50;99.90
18341;DHT22;9296;48.084;16.352;2023-02-19T13:02:57;15.40;99.90
18341;DHT22;9296;48.084;16.352;2023-02-19T13:05:34;15.30;99.90
18341;DHT22;9296;48.084;16.352;2023-02-19T13:08:09;15.20;99.90
18341;DHT22;9296;48.084;16.352;2023-02-19T13:10:42;15.10;99.90
18341;DHT22;9296;48.084;16.352;2023-02-19T13:16:47;15.40;99.90
18341;DHT22;9296;48.084;16.352;2023-02-19T13:19:15;15.30;99.90
18341;DHT22;9296;48.084;16.352;2023-02-19T13:21:48;15.50;99.90
18341;DHT22;9296;48.084;16.352;2023-02-19T13:24:36;15.50;99.90
18341;DHT22;9296;48.084;16.352;2023-02-19T13:27:36;15.30;99.90
18341;DHT22;9296;48.084;16.352;2023-02-19T13:30:28;15.20;99.90
18341;DHT22;9296;48.084;16.352;2023-02-19T13:33:02;15.00;99.90
18341;DHT22;9296;48.084;16.352;2023-02-19T13:38:38;14.90;99.90
18341;DHT22;9296;48.084;16.352;2023-02-19T13:41:34;14.90;99.90
18341;DHT22;9296;48.084;16.352;2023-02-19T13:44:05;14.70;99.90
18341;DHT22;9296;48.084;16.352;2023-02-19T13:46:35;14.60;99.90
18341;DHT22;9296;48.084;16.352;2023-02-19T13:49:23;14.60;99.90
18341;DHT22;9296;48.084;16.352;2023-02-19T13:51:50;14.60;99.90
18341;DHT22;9296;48.084;16.352;2023-02-19T13:54:25;14.70;99.90
18341;DHT22;9296;48.084;16.352;2023-02-19T13:57:26;14.40;99.90
18341;DHT22;9296;48.084;16.352;2023-02-19T13:59:54;14.40;99.90
18341;DHT22;9296;48.084;16.352;2023-02-19T14:02:31;14.50;99.90
18341;DHT22;9296;48.084;16.352;2023-02-19T14:05:00;14.60;99.90
18341;DHT22;9296;48.084;16.352;2023-02-19T14:10:57;14.80;99.90
18341;DHT22;9296;48.084;16.352;2023-02-19T14:13:58;14.60;99.90
18341;DHT22;9296;48.084;16.352;2023-02-19T14:16:36;14.50;99.90
18341;DHT22;9296;48.084;16.352;2023-02-19T14:19:42;14.40;99.90
18341;DHT22;9296;48.084;16.352;2023-02-19T14:25:40;14.10;99.90
18341;DHT22;9296;48.084;16.352;2023-02-19T14:28:38;14.00;99.90
18341;DHT22;9296;48.084;16.352;2023-02-19T14:31:27;13.90;99.90
18341;DHT22;9296;48.084;16.352;2023-02-19T14:33:58;13.80;99.90
18341;DHT22;9296;48.084;16.352;2023-02-19T14:36:33;13.90;99.90
18341;DHT22;9296;48.084;16.352;2023-02-19T14:39:02;13.80;99.90
18341;DHT22;9296;48.084;16.352;2023-02-19T14:41:50;13.70;99.90
18341;DHT22;9296;48.084;16.352;2023-02-19T14:44:22;13.80;99.90
18341;DHT22;9296;48.084;16.352;2023-02-19T14:46:54;13.50;99.90
18341;DHT22;9296;48.084;16.352;2023-02-19T14:49:26;13.20;99.90
18341;DHT22;9296;48.084;16.352;2023-02-19T14:51:57;13.10;99.90
18341;DHT22;9296;48.084;16.352;2023-02-19T14:54:40;12.90;99.90
18341;DHT22;9296;48.084;16.352;2023-02-19T14:57:14;12.80;99.90
18341;DHT22;9296;48.084;16.352;2023-02-19T14:59:53;12.80;99.90
18341;DHT22;9296;48.084;16.352;2023-02-19T15:02:20;12.50;99.90
18341;DHT22;9296;48.084;16.352;2023-02-19T15:04:50;12.40;99.90
18341;DHT22;9296;48.084;16.352;2023-02-19T15:07:20;12.20;99.90
18341;DHT22;9296;48.084;16.352;2023-02-19T15:09:50;12.30;99.90
18341;DHT22;9296;48.084;16.352;2023-02-19T15:12:20;12.10;99.90
18341;DHT22;9296;48.084;16.352;2023-02-19T15:14:49;12.10;99.90
18341;DHT22;9296;48.084;16.352;2023-02-19T15:17:23;12.00;99.90
18341;DHT22;9296;48.084;16.352;2023-02-19T15:19:51;11.90;99.90
18341;DHT22;9296;48.084;16.352;2023-02-19T15:22:21;11.90;99.90
18341;DHT22;9296;48.084;16.352;2023-02-19T15:24:48;12.00;99.90
18341;DHT22;9296;48.084;16.352;2023-02-19T15:30:37;11.70;99.90
18341;DHT22;9296;48.084;16.352;2023-02-19T15:33:15;11.70;99.90
18341;DHT22;9296;48.084;16.352;2023-02-19T15:35:47;11.80;99.90
18341;DHT22;9296;48.084;16.352;2023-02-19T15:38:15;11.50;99.90
18341;DHT22;9296;48.084;16.352;2023-02-19T15:40:44;11.50;99.90
18341;DHT22;9296;48.084;16.352;2023-02-19T15:43:18;11.50;99.90
18341;DHT22;9296;48.084;16.352;2023-02-19T15:45:47;11.50;99.90
18341;DHT22;9296;48.084;16.352;2023-02-19T15:48:17;11.60;99.90
18341;DHT22;9296;48.084;16.352;2023-02-19T15:50:47;11.50;99.90
18341;DHT22;9296;48.084;16.352;2023-02-19T15:53:18;11.50;99.90
18341;DHT22;9296;48.084;16.352;2023-02-19T15:55:51;11.50;99.90
18341;DHT22;9296;48.084;16.352;2023-02-19T15:58:24;11.40;99.90
18341;DHT22;9296;48.084;16.352;2023-02-19T16:00:56;11.20;99.90
18341;DHT22;9296;48.084;16.352;2023-02-19T16:03:27;11.10;99.90
18341;DHT22;9296;48.084;16.352;2023-02-19T16:06:00;10.70;99.90
18341;DHT22;9296;48.084;16.352;2023-02-19T16:08:29;10.40;99.90
18341;DHT22;9296;48.084;16.352;2023-02-19T16:10:57;10.20;99.90
18341;DHT22;9296;48.084;16.352;2023-02-19T16:13:25;10.00;99.90
18341;DHT22;9296;48.084;16.352;2023-02-19T16:16:05;9.80;99.90
18341;DHT22;9296;48.084;16.352;2023-02-19T16:18:37;9.70;99.90
18341;DHT22;9296;48.084;16.352;2023-02-19T16:21:07;9.70;99.90
18341;DHT22;9296;48.084;16.352;2023-02-19T16:23:34;9.60;99.90
18341;DHT22;9296;48.084;16.352;2023-02-19T16:26:02;9.50;99.90
18341;DHT22;9296;48.084;16.352;2023-02-19T16:28:49;9.50;99.90
18341;DHT22;9296;48.084;16.352;2023-02-19T16:31:19;9.50;99.90
18341;DHT22;9296;48.084;16.352;2023-02-19T16:33:48;9.50;99.90
18341;DHT22;9296;48.084;16.352;2023-02-19T16:36:24;9.50;99.90
18341;DHT22;9296;48.084;16.352;2023-02-19T16:39:21;9.50;99.90
18341;DHT22;9296;48.084;16.352;2023-02-19T16:42:11;9.60;99.90
18341;DHT22;9296;48.084;16.352;2023-02-19T16:44:39;9.50;99.90